sensor_id;sensor_type;location;lat;lon;timestamp;temperature;humidity
3778;DHT22;1904;50.076;8.660;2023-12-20T00:02:08;5.80;36.10
3778;DHT22;1904;50.076;8.660;2023-12-20T00:07:45;5.70;36.00
3778;DHT22;1904;50.076;8.660;2023-12-20T00:13:13;5.70;36.00
3778;DHT22;1904;50.076;8.660;2023-12-20T00:36:15;5.70;36.00
3778;DHT22;1904;50.076;8.660;2023-12-20T00:38:41;5.60;35.90
3778;DHT22;1904;50.076;8.660;2023-12-20T00:43:51;5.60;40.00
3778;DHT22;1904;50.076;8.660;2023-12-20T00:46:17;5.60;40.60
3778;DHT22;1904;50.076;8.660;2023-12-20T00:53:39;5.70;36.00
3778;DHT22;1904;50.076;8.660;2023-12-20T00:58:30;5.80;36.10
3778;DHT22;1904;50.076;8.660;2023-12-20T01:00:56;5.70;36.00
3778;DHT22;1904;50.076;8.660;2023-12-20T01:03:21;5.70;36.00
3778;DHT22;1904;50.076;8.660;2023-12-20T01:05:47;5.70;36.00
3778;DHT22;1904;50.076;8.660;2023-12-20T01:11:15;5.50;35.90
3778;DHT22;1904;50.076;8.660;2023-12-20T01:13:47;5.40;44.50
3778;DHT22;1904;50.076;8.660;2023-12-20T01:22:07;5.40;51.20
3778;DHT22;1904;50.076;8.660;2023-12-20T01:26:58;5.60;52.90
3778;DHT22;1904;50.076;8.660;2023-12-20T01:29:24;5.60;48.20
3778;DHT22;1904;50.076;8.660;2023-12-20T01:31:49;5.60;48.30
3778;DHT22;1904;50.076;8.660;2023-12-20T01:34:15;5.60;42.90
3778;DHT22;1904;50.076;8.660;2023-12-20T01:51:47;5.60;41.10
3778;DHT22;1904;50.076;8.660;2023-12-20T02:00:29;5.50;35.90
3778;DHT22;1904;50.076;8.660;2023-12-20T02:05:42;5.50;39.80
3778;DHT22;1904;50.076;8.660;2023-12-20T02:08:11;5.60;45.80
3778;DHT22;1904;50.076;8.660;2023-12-20T02:10:47;5.60;43.50
3778;DHT22;1904;50.076;8.660;2023-12-20T02:13:13;5.60;42.60
3778;DHT22;1904;50.076;8.660;2023-12-20T02:15:38;5.60;40.40
3778;DHT22;1904;50.076;8.660;2023-12-20T02:35:45;5.60;35.90
3778;DHT22;1904;50.076;8.660;2023-12-20T02:40:37;5.60;35.90
3778;DHT22;1904;50.076;8.660;2023-12-20T02:45:29;5.60;36.00
3778;DHT22;1904;50.076;8.660;2023-12-20T02:50:20;5.70;36.00
3778;DHT22;1904;50.076;8.660;2023-12-20T02:52:46;5.50;35.90
3778;DHT22;1904;50.076;8.660;2023-12-20T02:55:17;5.60;35.90
3778;DHT22;1904;50.076;8.660;2023-12-20T03:03:59;5.50;35.90
3778;DHT22;1904;50.076;8.660;2023-12-20T03:08:51;5.60;36.00
3778;DHT22;1904;50.076;8.660;2023-12-20T03:11:16;5.70;36.00
3778;DHT22;1904;50.076;8.660;2023-12-20T03:13:42;5.60;36.00
3778;DHT22;1904;50.076;8.660;2023-12-20T03:18:34;5.60;36.00
3778;DHT22;1904;50.076;8.660;2023-12-20T03:24:17;5.70;36.00
3778;DHT22;1904;50.076;8.660;2023-12-20T03:29:53;5.70;36.00
3778;DHT22;1904;50.076;8.660;2023-12-20T03:32:19;5.70;36.00
3778;DHT22;1904;50.076;8.660;2023-12-20T03:34:44;5.60;35.90
3778;DHT22;1904;50.076;8.660;2023-12-20T03:37:10;5.70;36.00
3778;DHT22;1904;50.076;8.660;2023-12-20T03:39:36;5.60;35.90
3778;DHT22;1904;50.076;8.660;2023-12-20T03:42:01;5.70;36.00
3778;DHT22;1904;50.076;8.660;2023-12-20T03:44:27;5.80;36.10
3778;DHT22;1904;50.076;8.660;2023-12-20T03:46:52;5.80;36.10
3778;DHT22;1904;50.076;8.660;2023-12-20T03:49:18;5.80;36.10
3778;DHT22;1904;50.076;8.660;2023-12-20T03:51:44;5.70;36.00
3778;DHT22;1904;50.076;8.660;2023-12-20T03:56:35;5.60;35.90
3778;DHT22;1904;50.076;8.660;2023-12-20T03:59:01;5.60;36.00
3778;DHT22;1904;50.076;8.660;2023-12-20T04:01:27;5.70;40.60
3778;DHT22;1904;50.076;8.660;2023-12-20T04:03:52;5.70;43.30
3778;DHT22;1904;50.076;8.660;2023-12-20T04:06:18;5.70;42.90
3778;DHT22;1904;50.076;8.660;2023-12-20T04:08:47;5.70;38.90
3778;DHT22;1904;50.076;8.660;2023-12-20T04:11:13;5.80;41.30
3778;DHT22;1904;50.076;8.660;2023-12-20T04:13:47;5.80;37.20
3778;DHT22;1904;50.076;8.660;2023-12-20T04:16:17;5.80;36.10
3778;DHT22;1904;50.076;8.660;2023-12-20T04:18:43;5.80;36.10
3778;DHT22;1904;50.076;8.660;2023-12-20T04:21:08;5.80;36.10
3778;DHT22;1904;50.076;8.660;2023-12-20T04:29:17;5.80;36.10
3778;DHT22;1904;50.076;8.660;2023-12-20T04:31:47;5.80;36.10
3778;DHT22;1904;50.076;8.660;2023-12-20T04:37:17;5.80;36.10
3778;DHT22;1904;50.076;8.660;2023-12-20T04:42:47;5.90;36.20
3778;DHT22;1904;50.076;8.660;2023-12-20T04:47:44;5.80;40.50
3778;DHT22;1904;50.076;8.660;2023-12-20T04:50:12;5.90;36.20
3778;DHT22;1904;50.076;8.660;2023-12-20T05:07:43;5.50;35.80
3778;DHT22;1904;50.076;8.660;2023-12-20T05:10:11;5.60;35.90
3778;DHT22;1904;50.076;8.660;2023-12-20T05:12:37;5.50;35.90
3778;DHT22;1904;50.076;8.660;2023-12-20T05:17:28;5.40;35.80
3778;DHT22;1904;50.076;8.660;2023-12-20T05:19:54;5.30;43.70
3778;DHT22;1904;50.076;8.660;2023-12-20T05:24:53;5.20;44.20
3778;DHT22;1904;50.076;8.660;2023-12-20T05:27:19;5.10;46.80
3778;DHT22;1904;50.076;8.660;2023-12-20T05:32:11;5.10;40.50
3778;DHT22;1904;50.076;8.660;2023-12-20T05:37:09;4.90;35.40
3778;DHT22;1904;50.076;8.660;2023-12-20T05:39:35;4.80;42.80
3778;DHT22;1904;50.076;8.660;2023-12-20T05:47:47;4.70;57.10
3778;DHT22;1904;50.076;8.660;2023-12-20T05:52:43;4.70;64.90
3778;DHT22;1904;50.076;8.660;2023-12-20T05:55:17;4.70;66.00
3778;DHT22;1904;50.076;8.660;2023-12-20T05:57:43;4.70;64.60
3778;DHT22;1904;50.076;8.660;2023-12-20T06:00:11;4.60;62.40
3778;DHT22;1904;50.076;8.660;2023-12-20T06:02:47;4.60;62.80
3778;DHT22;1904;50.076;8.660;2023-12-20T06:08:17;4.60;51.10
3778;DHT22;1904;50.076;8.660;2023-12-20T06:10:47;4.50;48.50
3778;DHT22;1904;50.076;8.660;2023-12-20T06:15:47;4.50;36.50
3778;DHT22;1904;50.076;8.660;2023-12-20T06:18:17;4.50;35.00
3778;DHT22;1904;50.076;8.660;2023-12-20T06:20:47;4.40;35.00
3778;DHT22;1904;50.076;8.660;2023-12-20T06:28:09;4.40;35.00
3778;DHT22;1904;50.076;8.660;2023-12-20T06:30:35;4.40;35.00
3778;DHT22;1904;50.076;8.660;2023-12-20T06:33:05;4.20;34.80
3778;DHT22;1904;50.076;8.660;2023-12-20T06:35:32;4.10;34.70
3778;DHT22;1904;50.076;8.660;2023-12-20T06:49:32;3.90;34.50
3778;DHT22;1904;50.076;8.660;2023-12-20T07:01:10;3.90;34.50
3778;DHT22;1904;50.076;8.660;2023-12-20T07:24:57;4.50;43.00
3778;DHT22;1904;50.076;8.660;2023-12-20T07:32:51;4.70;35.20
3778;DHT22;1904;50.076;8.660;2023-12-20T07:38:24;4.90;35.40
3778;DHT22;1904;50.076;8.660;2023-12-20T07:40:50;4.90;35.40
3778;DHT22;1904;50.076;8.660;2023-12-20T07:43:17;4.80;35.30
3778;DHT22;1904;50.076;8.660;2023-12-20T07:48:17;4.80;25.50
3778;DHT22;1904;50.076;8.660;2023-12-20T07:50:47;4.70;23.40
3778;DHT22;1904;50.076;8.660;2023-12-20T07:53:13;4.60;21.90
3778;DHT22;1904;50.076;8.660;2023-12-20T07:55:41;4.60;21.10
3778;DHT22;1904;50.076;8.660;2023-12-20T07:58:08;4.60;21.10
3778;DHT22;1904;50.076;8.660;2023-12-20T08:05:59;4.80;20.40
3778;DHT22;1904;50.076;8.660;2023-12-20T08:08:29;4.90;17.40
3778;DHT22;1904;50.076;8.660;2023-12-20T08:10:55;4.90;16.80
3778;DHT22;1904;50.076;8.660;2023-12-20T08:13:23;5.00;15.20
3778;DHT22;1904;50.076;8.660;2023-12-20T08:15:51;5.10;10.20
3778;DHT22;1904;50.076;8.660;2023-12-20T08:18:17;5.20;8.70
3778;DHT22;1904;50.076;8.660;2023-12-20T08:25:37;5.20;5.50
3778;DHT22;1904;50.076;8.660;2023-12-20T08:28:02;5.30;4.60
3778;DHT22;1904;50.076;8.660;2023-12-20T08:32:59;5.40;3.30
3778;DHT22;1904;50.076;8.660;2023-12-20T08:35:25;5.30;1.70
3778;DHT22;1904;50.076;8.660;2023-12-20T08:37:51;5.30;1.80
3778;DHT22;1904;50.076;8.660;2023-12-20T08:40:29;5.20;3.50
3778;DHT22;1904;50.076;8.660;2023-12-20T08:48:47;5.20;5.50
3778;DHT22;1904;50.076;8.660;2023-12-20T08:54:16;5.50;3.70
3778;DHT22;1904;50.076;8.660;2023-12-20T08:56:59;5.50;1.00
3778;DHT22;1904;50.076;8.660;2023-12-20T08:59:25;5.50;1.00
3778;DHT22;1904;50.076;8.660;2023-12-20T09:04:53;5.50;1.00
3778;DHT22;1904;50.076;8.660;2023-12-20T09:10:22;5.60;1.00
3778;DHT22;1904;50.076;8.660;2023-12-20T09:24:41;6.10;1.00
3778;DHT22;1904;50.076;8.660;2023-12-20T09:27:07;6.10;1.00
3778;DHT22;1904;50.076;8.660;2023-12-20T09:29:33;6.20;1.00
3778;DHT22;1904;50.076;8.660;2023-12-20T09:31:58;6.40;1.00
3778;DHT22;1904;50.076;8.660;2023-12-20T09:34:24;6.40;1.00
3778;DHT22;1904;50.076;8.660;2023-12-20T09:36:59;6.50;1.00
3778;DHT22;1904;50.076;8.660;2023-12-20T09:39:25;6.50;1.00
3778;DHT22;1904;50.076;8.660;2023-12-20T09:44:35;6.70;1.00
3778;DHT22;1904;50.076;8.660;2023-12-20T09:50:05;6.70;1.00
3778;DHT22;1904;50.076;8.660;2023-12-20T09:55:18;6.90;1.00
3778;DHT22;1904;50.076;8.660;2023-12-20T09:57:47;7.00;1.00
3778;DHT22;1904;50.076;8.660;2023-12-20T10:00:13;7.00;1.00
3778;DHT22;1904;50.076;8.660;2023-12-20T10:02:42;7.00;1.00
3778;DHT22;1904;50.076;8.660;2023-12-20T10:05:10;7.00;1.00
3778;DHT22;1904;50.076;8.660;2023-12-20T10:07:40;7.00;1.00
3778;DHT22;1904;50.076;8.660;2023-12-20T10:16:12;7.00;1.00
3778;DHT22;1904;50.076;8.660;2023-12-20T10:24:47;7.40;1.00
3778;DHT22;1904;50.076;8.660;2023-12-20T10:27:13;7.60;1.00
3778;DHT22;1904;50.076;8.660;2023-12-20T10:29:41;7.60;1.00
3778;DHT22;1904;50.076;8.660;2023-12-20T10:32:23;7.60;1.00
3778;DHT22;1904;50.076;8.660;2023-12-20T10:35:05;7.50;1.00
3778;DHT22;1904;50.076;8.660;2023-12-20T10:37:41;7.50;1.00
3778;DHT22;1904;50.076;8.660;2023-12-20T10:40:11;7.60;1.00
3778;DHT22;1904;50.076;8.660;2023-12-20T10:42:38;7.60;1.00
3778;DHT22;1904;50.076;8.660;2023-12-20T10:45:06;7.70;1.00
3778;DHT22;1904;50.076;8.660;2023-12-20T10:50:07;7.60;1.00
3778;DHT22;1904;50.076;8.660;2023-12-20T10:52:47;7.60;1.00
3778;DHT22;1904;50.076;8.660;2023-12-20T10:55:14;7.70;1.00
3778;DHT22;1904;50.076;8.660;2023-12-20T10:57:39;7.60;1.00
3778;DHT22;1904;50.076;8.660;2023-12-20T11:00:18;7.70;1.00
3778;DHT22;1904;50.076;8.660;2023-12-20T11:02:48;7.60;1.00
3778;DHT22;1904;50.076;8.660;2023-12-20T11:12:58;7.60;1.00
3778;DHT22;1904;50.076;8.660;2023-12-20T11:15:26;7.50;1.00
3778;DHT22;1904;50.076;8.660;2023-12-20T11:17:55;7.50;1.00
3778;DHT22;1904;50.076;8.660;2023-12-20T11:20:56;7.60;1.00
3778;DHT22;1904;50.076;8.660;2023-12-20T11:23:15;7.60;1.00
3778;DHT22;1904;50.076;8.660;2023-12-20T11:25:55;7.60;1.00
3778;DHT22;1904;50.076;8.660;2023-12-20T11:28:22;7.70;1.00
3778;DHT22;1904;50.076;8.660;2023-12-20T11:30:49;7.70;1.00
3778;DHT22;1904;50.076;8.660;2023-12-20T11:33:16;7.70;1.00
3778;DHT22;1904;50.076;8.660;2023-12-20T11:35:47;7.80;1.00
3778;DHT22;1904;50.076;8.660;2023-12-20T11:38:13;8.00;1.00
3778;DHT22;1904;50.076;8.660;2023-12-20T11:40:40;7.90;1.00
3778;DHT22;1904;50.076;8.660;2023-12-20T11:43:11;7.90;1.00
3778;DHT22;1904;50.076;8.660;2023-12-20T11:45:37;8.00;1.00
3778;DHT22;1904;50.076;8.660;2023-12-20T11:50:35;8.10;1.00
3778;DHT22;1904;50.076;8.660;2023-12-20T11:53:11;8.20;1.00
3778;DHT22;1904;50.076;8.660;2023-12-20T11:55:41;8.20;1.00
3778;DHT22;1904;50.076;8.660;2023-12-20T11:58:07;8.20;1.00
3778;DHT22;1904;50.076;8.660;2023-12-20T12:00:35;8.30;1.00
3778;DHT22;1904;50.076;8.660;2023-12-20T12:03:01;8.40;1.00
3778;DHT22;1904;50.076;8.660;2023-12-20T12:08:30;8.70;1.00
3778;DHT22;1904;50.076;8.660;2023-12-20T12:10:55;8.80;1.00
3778;DHT22;1904;50.076;8.660;2023-12-20T12:19:27;8.70;1.00
3778;DHT22;1904;50.076;8.660;2023-12-20T12:22:15;8.70;1.00
3778;DHT22;1904;50.076;8.660;2023-12-20T12:24:48;8.80;1.00
3778;DHT22;1904;50.076;8.660;2023-12-20T12:29:43;8.70;1.00
3778;DHT22;1904;50.076;8.660;2023-12-20T12:32:24;8.70;1.00
3778;DHT22;1904;50.076;8.660;2023-12-20T12:34:50;8.60;1.00
3778;DHT22;1904;50.076;8.660;2023-12-20T12:37:16;8.70;1.00
3778;DHT22;1904;50.076;8.660;2023-12-20T12:39:42;8.80;1.00
3778;DHT22;1904;50.076;8.660;2023-12-20T12:44:59;8.80;1.00
3778;DHT22;1904;50.076;8.660;2023-12-20T12:53:23;8.80;1.00
3778;DHT22;1904;50.076;8.660;2023-12-20T12:56:06;8.70;1.00
3778;DHT22;1904;50.076;8.660;2023-12-20T12:58:32;8.60;1.00
3778;DHT22;1904;50.076;8.660;2023-12-20T13:01:00;8.50;1.00
3778;DHT22;1904;50.076;8.660;2023-12-20T13:03:29;8.50;1.00
3778;DHT22;1904;50.076;8.660;2023-12-20T13:05:55;8.40;1.00
3778;DHT22;1904;50.076;8.660;2023-12-20T13:08:21;8.50;1.00
3778;DHT22;1904;50.076;8.660;2023-12-20T13:10:47;8.70;1.00
3778;DHT22;1904;50.076;8.660;2023-12-20T13:13:13;8.60;1.00
3778;DHT22;1904;50.076;8.660;2023-12-20T13:15:38;8.80;1.00
3778;DHT22;1904;50.076;8.660;2023-12-20T13:18:04;8.80;1.00
3778;DHT22;1904;50.076;8.660;2023-12-20T13:20:31;9.00;1.00
3778;DHT22;1904;50.076;8.660;2023-12-20T13:22:57;9.10;1.00
3778;DHT22;1904;50.076;8.660;2023-12-20T13:25:22;9.20;1.00
3778;DHT22;1904;50.076;8.660;2023-12-20T13:30:48;9.20;1.00
3778;DHT22;1904;50.076;8.660;2023-12-20T13:33:23;9.20;1.00
3778;DHT22;1904;50.076;8.660;2023-12-20T13:35:49;9.00;1.00
3778;DHT22;1904;50.076;8.660;2023-12-20T13:38:15;8.90;1.00
3778;DHT22;1904;50.076;8.660;2023-12-20T13:40:41;9.00;1.00
3778;DHT22;1904;50.076;8.660;2023-12-20T13:43:12;8.80;1.00
3778;DHT22;1904;50.076;8.660;2023-12-20T13:48:41;8.90;1.00
3778;DHT22;1904;50.076;8.660;2023-12-20T13:51:18;8.90;1.00
3778;DHT22;1904;50.076;8.660;2023-12-20T13:53:48;9.00;1.00
3778;DHT22;1904;50.076;8.660;2023-12-20T13:59:18;9.00;1.00
3778;DHT22;1904;50.076;8.660;2023-12-20T14:01:43;8.90;1.00
3778;DHT22;1904;50.076;8.660;2023-12-20T14:04:09;8.70;1.00
3778;DHT22;1904;50.076;8.660;2023-12-20T14:06:36;8.70;1.00
3778;DHT22;1904;50.076;8.660;2023-12-20T14:09:02;8.60;1.00
3778;DHT22;1904;50.076;8.660;2023-12-20T14:11:31;8.50;1.00
3778;DHT22;1904;50.076;8.660;2023-12-20T14:14:12;8.40;1.00
3778;DHT22;1904;50.076;8.660;2023-12-20T14:19:29;8.40;1.00
3778;DHT22;1904;50.076;8.660;2023-12-20T14:21:55;8.20;1.00
3778;DHT22;1904;50.076;8.660;2023-12-20T14:24:24;8.20;1.00
3778;DHT22;1904;50.076;8.660;2023-12-20T14:29:16;8.10;1.00
3778;DHT22;1904;50.076;8.660;2023-12-20T14:34:12;8.20;1.00
3778;DHT22;1904;50.076;8.660;2023-12-20T14:36:54;8.10;1.00
3778;DHT22;1904;50.076;8.660;2023-12-20T14:39:23;8.10;1.00
3778;DHT22;1904;50.076;8.660;2023-12-20T14:41:49;8.10;1.00
3778;DHT22;1904;50.076;8.660;2023-12-20T14:44:17;8.10;1.00
3778;DHT22;1904;50.076;8.660;2023-12-20T14:46:59;8.10;1.00
3778;DHT22;1904;50.076;8.660;2023-12-20T14:58:36;8.10;1.00
3778;DHT22;1904;50.076;8.660;2023-12-20T15:01:02;8.00;1.00
3778;DHT22;1904;50.076;8.660;2023-12-20T15:03:28;8.10;1.00
3778;DHT22;1904;50.076;8.660;2023-12-20T15:05:54;8.10;1.00
3778;DHT22;1904;50.076;8.660;2023-12-20T15:08:24;8.10;1.00
3778;DHT22;1904;50.076;8.660;2023-12-20T15:10:50;8.10;1.00
3778;DHT22;1904;50.076;8.660;2023-12-20T15:13:16;8.00;1.00
3778;DHT22;1904;50.076;8.660;2023-12-20T15:15:42;8.00;1.00
3778;DHT22;1904;50.076;8.660;2023-12-20T15:26:54;8.00;1.00
3778;DHT22;1904;50.076;8.660;2023-12-20T15:29:19;7.90;1.00
3778;DHT22;1904;50.076;8.660;2023-12-20T15:34:11;7.90;1.00
3778;DHT22;1904;50.076;8.660;2023-12-20T15:36:48;7.90;1.00
3778;DHT22;1904;50.076;8.660;2023-12-20T15:39:18;7.80;1.00
3778;DHT22;1904;50.076;8.660;2023-12-20T15:44:24;7.70;1.00
3778;DHT22;1904;50.076;8.660;2023-12-20T15:46:50;7.70;1.00
3778;DHT22;1904;50.076;8.660;2023-12-20T15:49:29;7.70;1.00
3778;DHT22;1904;50.076;8.660;2023-12-20T16:03:48;7.60;1.00
3778;DHT22;1904;50.076;8.660;2023-12-20T16:06:30;7.60;1.00
3778;DHT22;1904;50.076;8.660;2023-12-20T16:14:58;7.50;1.00
3778;DHT22;1904;50.076;8.660;2023-12-20T16:17:24;7.50;1.00
3778;DHT22;1904;50.076;8.660;2023-12-20T16:20:00;7.50;1.00
3778;DHT22;1904;50.076;8.660;2023-12-20T16:22:30;7.50;1.00
3778;DHT22;1904;50.076;8.660;2023-12-20T16:30:58;7.60;1.00
3778;DHT22;1904;50.076;8.660;2023-12-20T16:42:30;7.40;1.00
3778;DHT22;1904;50.076;8.660;2023-12-20T16:44:55;7.40;1.00
3778;DHT22;1904;50.076;8.660;2023-12-20T16:47:21;7.40;1.00
3778;DHT22;1904;50.076;8.660;2023-12-20T16:54:58;7.40;1.00
3778;DHT22;1904;50.076;8.660;2023-12-20T16:57:23;7.30;1.00
3778;DHT22;1904;50.076;8.660;2023-12-20T16:59:54;7.30;1.00
3778;DHT22;1904;50.076;8.660;2023-12-20T17:02:36;7.40;1.00
3778;DHT22;1904;50.076;8.660;2023-12-20T17:05:12;7.50;1.00
3778;DHT22;1904;50.076;8.660;2023-12-20T17:07:54;7.50;1.00
3778;DHT22;1904;50.076;8.660;2023-12-20T17:10:30;7.50;1.00
3778;DHT22;1904;50.076;8.660;2023-12-20T17:13:12;7.50;1.00
3778;DHT22;1904;50.076;8.660;2023-12-20T17:21:30;7.40;1.00
3778;DHT22;1904;50.076;8.660;2023-12-20T17:30:00;7.50;1.00
3778;DHT22;1904;50.076;8.660;2023-12-20T17:35:12;7.50;1.00
3778;DHT22;1904;50.076;8.660;2023-12-20T17:37:42;7.50;1.00
3778;DHT22;1904;50.076;8.660;2023-12-20T17:52:30;7.40;1.00
3778;DHT22;1904;50.076;8.660;2023-12-20T17:55:00;7.50;1.00
3778;DHT22;1904;50.076;8.660;2023-12-20T17:57:30;7.50;1.00
3778;DHT22;1904;50.076;8.660;2023-12-20T18:00:12;7.50;1.00
3778;DHT22;1904;50.076;8.660;2023-12-20T18:02:54;7.50;1.00
3778;DHT22;1904;50.076;8.660;2023-12-20T18:08:30;7.50;1.00
3778;DHT22;1904;50.076;8.660;2023-12-20T18:16:43;7.60;1.00
3778;DHT22;1904;50.076;8.660;2023-12-20T18:19:24;7.50;1.00
3778;DHT22;1904;50.076;8.660;2023-12-20T18:21:49;7.60;1.00
3778;DHT22;1904;50.076;8.660;2023-12-20T18:24:30;7.70;1.00
3778;DHT22;1904;50.076;8.660;2023-12-20T18:33:06;7.70;1.00
3778;DHT22;1904;50.076;8.660;2023-12-20T18:44:06;7.70;1.00
3778;DHT22;1904;50.076;8.660;2023-12-20T18:52:41;7.60;1.00
3778;DHT22;1904;50.076;8.660;2023-12-20T19:01:12;7.60;1.00
3778;DHT22;1904;50.076;8.660;2023-12-20T19:37:55;7.70;1.00
3778;DHT22;1904;50.076;8.660;2023-12-20T19:40:30;7.60;1.00
3778;DHT22;1904;50.076;8.660;2023-12-20T19:46:00;7.50;1.00
3778;DHT22;1904;50.076;8.660;2023-12-20T19:51:00;7.50;1.00
3778;DHT22;1904;50.076;8.660;2023-12-20T19:53:26;7.40;1.00
3778;DHT22;1904;50.076;8.660;2023-12-20T19:56:00;7.30;1.00
3778;DHT22;1904;50.076;8.660;2023-12-20T19:58:30;7.30;1.00
3778;DHT22;1904;50.076;8.660;2023-12-20T20:00:55;7.40;1.00
3778;DHT22;1904;50.076;8.660;2023-12-20T20:03:21;7.40;1.00
3778;DHT22;1904;50.076;8.660;2023-12-20T20:05:47;7.40;1.00
3778;DHT22;1904;50.076;8.660;2023-12-20T20:08:30;7.40;1.00
3778;DHT22;1904;50.076;8.660;2023-12-20T20:13:21;7.30;1.00
3778;DHT22;1904;50.076;8.660;2023-12-20T20:18:13;7.30;1.00
3778;DHT22;1904;50.076;8.660;2023-12-20T20:20:39;7.20;1.00
3778;DHT22;1904;50.076;8.660;2023-12-20T20:23:06;7.10;1.00
3778;DHT22;1904;50.076;8.660;2023-12-20T20:25:32;7.20;1.00
3778;DHT22;1904;50.076;8.660;2023-12-20T20:28:00;7.20;1.00
3778;DHT22;1904;50.076;8.660;2023-12-20T20:30:25;7.20;1.00
3778;DHT22;1904;50.076;8.660;2023-12-20T20:32:51;7.30;1.00
3778;DHT22;1904;50.076;8.660;2023-12-20T20:35:17;7.30;1.00
3778;DHT22;1904;50.076;8.660;2023-12-20T20:37:44;7.20;1.00
3778;DHT22;1904;50.076;8.660;2023-12-20T20:40:09;7.30;1.00
3778;DHT22;1904;50.076;8.660;2023-12-20T20:42:36;7.20;1.00
3778;DHT22;1904;50.076;8.660;2023-12-20T20:45:02;7.20;1.00
3778;DHT22;1904;50.076;8.660;2023-12-20T20:49:54;7.20;1.00
3778;DHT22;1904;50.076;8.660;2023-12-20T20:52:19;7.30;1.00
3778;DHT22;1904;50.076;8.660;2023-12-20T20:54:45;7.30;1.00
3778;DHT22;1904;50.076;8.660;2023-12-20T20:57:11;7.30;1.00
3778;DHT22;1904;50.076;8.660;2023-12-20T20:59:36;7.40;1.00
3778;DHT22;1904;50.076;8.660;2023-12-20T21:02:07;7.40;1.00
3778;DHT22;1904;50.076;8.660;2023-12-20T21:07:31;7.30;1.00
3778;DHT22;1904;50.076;8.660;2023-12-20T21:09:57;7.40;1.00
3778;DHT22;1904;50.076;8.660;2023-12-20T21:12:30;7.40;1.00
3778;DHT22;1904;50.076;8.660;2023-12-20T21:17:30;7.30;1.00
3778;DHT22;1904;50.076;8.660;2023-12-20T21:19:55;7.30;1.00
3778;DHT22;1904;50.076;8.660;2023-12-20T21:22:21;7.40;1.00
3778;DHT22;1904;50.076;8.660;2023-12-20T21:27:24;7.40;1.00
3778;DHT22;1904;50.076;8.660;2023-12-20T21:32:16;7.50;1.00
3778;DHT22;1904;50.076;8.660;2023-12-20T21:37:08;7.40;1.00
3778;DHT22;1904;50.076;8.660;2023-12-20T21:39:36;7.40;1.00
3778;DHT22;1904;50.076;8.660;2023-12-20T21:42:02;7.50;1.00
3778;DHT22;1904;50.076;8.660;2023-12-20T21:44:28;7.50;1.00
3778;DHT22;1904;50.076;8.660;2023-12-20T21:46:54;7.50;1.00
3778;DHT22;1904;50.076;8.660;2023-12-20T21:49:19;7.40;1.00
3778;DHT22;1904;50.076;8.660;2023-12-20T21:54:14;7.40;1.00
3778;DHT22;1904;50.076;8.660;2023-12-20T21:56:42;7.40;1.00
3778;DHT22;1904;50.076;8.660;2023-12-20T21:59:08;7.40;1.00
3778;DHT22;1904;50.076;8.660;2023-12-20T22:01:35;7.30;1.00
3778;DHT22;1904;50.076;8.660;2023-12-20T22:04:06;7.30;1.00
3778;DHT22;1904;50.076;8.660;2023-12-20T22:06:36;7.40;1.00
3778;DHT22;1904;50.076;8.660;2023-12-20T22:09:01;7.40;1.00
3778;DHT22;1904;50.076;8.660;2023-12-20T22:11:30;7.30;1.00
3778;DHT22;1904;50.076;8.660;2023-12-20T22:13:55;7.30;1.00
3778;DHT22;1904;50.076;8.660;2023-12-20T22:16:24;7.30;1.00
3778;DHT22;1904;50.076;8.660;2023-12-20T22:18:50;7.40;1.00
3778;DHT22;1904;50.076;8.660;2023-12-20T22:21:15;7.40;1.00
3778;DHT22;1904;50.076;8.660;2023-12-20T22:23:42;7.40;1.00
3778;DHT22;1904;50.076;8.660;2023-12-20T22:26:07;7.40;1.00
3778;DHT22;1904;50.076;8.660;2023-12-20T22:28:33;7.40;1.00
3778;DHT22;1904;50.076;8.660;2023-12-20T22:30:59;7.40;1.00
3778;DHT22;1904;50.076;8.660;2023-12-20T22:33:25;7.30;1.00
3778;DHT22;1904;50.076;8.660;2023-12-20T22:36:00;7.30;1.00
3778;DHT22;1904;50.076;8.660;2023-12-20T22:41:00;7.40;1.00
3778;DHT22;1904;50.076;8.660;2023-12-20T22:43:30;7.40;1.00
3778;DHT22;1904;50.076;8.660;2023-12-20T22:58:00;7.30;6.10
3778;DHT22;1904;50.076;8.660;2023-12-20T23:05:50;7.20;10.60
3778;DHT22;1904;50.076;8.660;2023-12-20T23:08:16;7.20;11.60
3778;DHT22;1904;50.076;8.660;2023-12-20T23:10:41;7.20;13.40
3778;DHT22;1904;50.076;8.660;2023-12-20T23:13:18;7.10;16.20
3778;DHT22;1904;50.076;8.660;2023-12-20T23:15:44;7.10;18.10
3778;DHT22;1904;50.076;8.660;2023-12-20T23:18:09;7.10;20.40
3778;DHT22;1904;50.076;8.660;2023-12-20T23:20:35;7.10;22.90
3778;DHT22;1904;50.076;8.660;2023-12-20T23:25:55;7.10;28.80
3778;DHT22;1904;50.076;8.660;2023-12-20T23:28:30;7.10;29.70
3778;DHT22;1904;50.076;8.660;2023-12-20T23:31:00;7.10;33.90
3778;DHT22;1904;50.076;8.660;2023-12-20T23:33:36;7.20;37.30
3778;DHT22;1904;50.076;8.660;2023-12-20T23:36:01;7.20;37.30
3778;DHT22;1904;50.076;8.660;2023-12-20T23:38:27;7.10;37.20
3778;DHT22;1904;50.076;8.660;2023-12-20T23:40:53;7.20;37.30
3778;DHT22;1904;50.076;8.660;2023-12-20T23:43:19;7.20;37.30
3778;DHT22;1904;50.076;8.660;2023-12-20T23:45:45;7.20;37.30
3778;DHT22;1904;50.076;8.660;2023-12-20T23:48:10;7.30;37.40
3778;DHT22;1904;50.076;8.660;2023-12-20T23:50:36;7.30;36.90
3778;DHT22;1904;50.076;8.660;2023-12-20T23:55:52;7.30;28.60
3778;DHT22;1904;50.076;8.660;2023-12-20T23:58:18;7.20;28.60
